createdAt,value
2023-02-19T00:00:19.012Z,19.17
2023-02-19T00:02:51.189Z,19.40
2023-02-19T00:05:19.537Z,19.73
2023-02-19T00:07:47.610Z,17.97
2023-02-19T00:10:17.216Z,21.33
2023-02-19T00:12:45.306Z,20.63
2023-02-19T00:15:15.315Z,22.97
2023-02-19T00:17:46.429Z,11.33
2023-02-19T00:20:16.660Z,19.10
2023-02-19T00:22:44.634Z,15.43
2023-02-19T00:25:13.001Z,19.93
2023-02-19T00:27:41.352Z,16.90
2023-02-19T00:30:13.561Z,16.97
2023-02-19T00:32:44.671Z,17.33
2023-02-19T00:35:13.843Z,18.90
2023-02-19T00:37:46.797Z,17.13
2023-02-19T00:40:16.145Z,13.83
2023-02-19T00:42:44.162Z,17.70
2023-02-19T00:45:12.278Z,19.60
2023-02-19T00:47:41.588Z,19.53
2023-02-19T00:50:10.441Z,19.90
2023-02-19T00:52:50.011Z,14.87
2023-02-19T00:55:27.980Z,19.53
2023-02-19T00:57:57.726Z,12.33
2023-02-19T01:00:30.513Z,23.80
2023-02-19T01:03:05.001Z,17.43
2023-02-19T01:05:35.020Z,20.70
2023-02-19T01:08:13.988Z,18.37
2023-02-19T01:10:44.816Z,17.90
2023-02-19T01:13:13.585Z,26.70
2023-02-19T01:15:42.678Z,21.90
2023-02-19T01:18:12.741Z,15.73
2023-02-19T01:20:42.359Z,17.80
2023-02-19T01:23:11.630Z,14.97
2023-02-19T01:25:40.982Z,14.03
2023-02-19T01:28:12.396Z,19.70
2023-02-19T01:30:40.947Z,27.93
2023-02-19T01:33:09.972Z,22.13
2023-02-19T01:35:43.387Z,22.40
2023-02-19T01:38:32.250Z,21.27
2023-02-19T01:41:02.321Z,14.27
2023-02-19T01:44:00.703Z,21.40
2023-02-19T01:46:33.771Z,11.37
2023-02-19T01:49:05.889Z,17.10
2023-02-19T01:51:37.746Z,17.30
2023-02-19T01:54:09.747Z,15.67
2023-02-19T01:56:42.578Z,15.57
2023-02-19T01:59:34.968Z,18.03
2023-02-19T02:02:11.482Z,16.60
2023-02-19T02:04:40.336Z,14.87
2023-02-19T02:07:25.220Z,13.63
2023-02-19T02:10:12.403Z,21.53
2023-02-19T02:12:48.086Z,14.97
2023-02-19T02:15:20.340Z,19.77
2023-02-19T02:17:54.532Z,19.53
2023-02-19T02:20:47.056Z,18.60
2023-02-19T02:23:20.775Z,19.60
2023-02-19T02:26:13.037Z,17.33
2023-02-19T02:29:23.194Z,20.90
2023-02-19T02:32:00.512Z,16.53
2023-02-19T02:34:35.127Z,23.37
2023-02-19T02:37:06.859Z,22.47
2023-02-19T02:39:35.950Z,17.37
2023-02-19T02:42:32.151Z,22.97
2023-02-19T02:45:34.638Z,19.70
2023-02-19T02:48:10.322Z,18.83
2023-02-19T02:50:44.271Z,22.53
2023-02-19T02:53:35.075Z,18.40
2023-02-19T02:56:13.195Z,19.87
2023-02-19T02:58:47.574Z,21.63
2023-02-19T03:01:41.240Z,16.80
2023-02-19T03:04:15.300Z,16.33
2023-02-19T03:06:45.429Z,17.77
2023-02-19T03:09:30.323Z,18.57
2023-02-19T03:12:19.883Z,20.23
2023-02-19T03:15:21.935Z,18.77
2023-02-19T03:18:13.346Z,17.00
2023-02-19T03:20:50.196Z,15.47
2023-02-19T03:23:24.175Z,24.30
2023-02-19T03:26:05.760Z,20.97
2023-02-19T03:28:55.039Z,14.80
2023-02-19T03:31:29.083Z,18.63
2023-02-19T03:34:04.138Z,20.13
2023-02-19T03:36:55.767Z,16.17
2023-02-19T03:39:47.319Z,16.40
2023-02-19T03:42:39.353Z,9.53
2023-02-19T03:45:19.725Z,17.43
2023-02-19T03:47:53.854Z,19.27
2023-02-19T03:50:28.097Z,20.40
2023-02-19T03:53:11.168Z,19.77
2023-02-19T03:55:50.682Z,16.43
2023-02-19T03:58:26.894Z,13.40
2023-02-19T04:00:58.920Z,24.23
2023-02-19T04:03:33.665Z,22.40
2023-02-19T04:06:05.052Z,23.00
2023-02-19T04:08:39.004Z,22.13
2023-02-19T04:11:13.304Z,28.90
2023-02-19T04:13:53.981Z,23.07
2023-02-19T04:16:27.302Z,22.07
2023-02-19T04:19:01.274Z,16.90
2023-02-19T04:21:36.734Z,20.10
2023-02-19T04:24:15.605Z,25.23
2023-02-19T04:26:49.401Z,22.67
2023-02-19T04:29:21.232Z,21.07
2023-02-19T04:31:49.952Z,23.17
2023-02-19T04:34:18.029Z,26.63
2023-02-19T04:36:47.759Z,23.47
2023-02-19T04:39:20.321Z,17.97
2023-02-19T04:41:49.117Z,19.53
2023-02-19T04:44:17.707Z,19.00
2023-02-19T04:47:06.743Z,21.03
2023-02-19T04:49:35.386Z,23.80
2023-02-19T04:52:04.927Z,20.43
2023-02-19T04:54:37.162Z,15.33
2023-02-19T04:57:09.234Z,16.87
2023-02-19T04:59:41.301Z,20.43
2023-02-19T05:02:10.674Z,10.93
2023-02-19T05:05:04.077Z,20.10
2023-02-19T05:07:35.401Z,18.93
2023-02-19T05:10:04.993Z,15.60
2023-02-19T05:12:33.088Z,16.90
2023-02-19T05:15:02.107Z,13.50
2023-02-19T05:17:33.276Z,16.73
2023-02-19T05:20:03.455Z,14.47
2023-02-19T05:22:34.662Z,19.90
2023-02-19T05:25:06.573Z,12.07
2023-02-19T05:27:35.476Z,15.27
2023-02-19T05:30:04.823Z,13.43
2023-02-19T05:32:33.135Z,8.53
2023-02-19T05:35:01.832Z,12.87
2023-02-19T05:37:30.236Z,14.90
2023-02-19T05:40:25.531Z,9.97
2023-02-19T05:42:58.745Z,19.03
2023-02-19T05:45:29.498Z,13.23
2023-02-19T05:47:59.109Z,13.53
2023-02-19T05:50:36.973Z,16.20
2023-02-19T05:53:10.153Z,12.77
2023-02-19T05:55:42.314Z,13.20
2023-02-19T05:58:15.246Z,11.73
2023-02-19T06:00:43.481Z,17.90
2023-02-19T06:03:31.406Z,13.77
2023-02-19T06:06:21.508Z,17.23
2023-02-19T06:08:59.231Z,14.53
2023-02-19T06:11:30.404Z,13.97
2023-02-19T06:13:59.135Z,14.37
2023-02-19T06:16:33.424Z,15.60
2023-02-19T06:19:04.129Z,16.80
2023-02-19T06:21:32.460Z,18.37
2023-02-19T06:24:05.741Z,14.57
2023-02-19T06:26:37.964Z,15.57
2023-02-19T06:29:06.095Z,18.47
2023-02-19T06:31:36.236Z,12.80
2023-02-19T06:34:14.910Z,15.33
2023-02-19T06:36:43.299Z,11.70
2023-02-19T06:39:21.994Z,15.37
2023-02-19T06:41:51.839Z,11.97
2023-02-19T06:44:19.863Z,14.73
2023-02-19T06:46:47.862Z,16.93
2023-02-19T06:49:16.071Z,17.13
2023-02-19T06:51:44.068Z,16.73
2023-02-19T06:54:12.063Z,13.60
2023-02-19T06:56:41.528Z,14.73
2023-02-19T06:59:13.181Z,14.43
2023-02-19T07:01:41.756Z,16.20
2023-02-19T07:04:10.374Z,15.10
2023-02-19T07:06:38.946Z,17.57
2023-02-19T07:09:08.842Z,25.60
2023-02-19T07:11:38.989Z,12.60
2023-02-19T07:14:14.905Z,10.57
2023-02-19T07:16:43.171Z,12.80
2023-02-19T07:19:12.297Z,13.43
2023-02-19T07:21:40.235Z,13.07
2023-02-19T07:24:08.820Z,16.33
2023-02-19T07:26:37.353Z,18.80
2023-02-19T07:29:06.027Z,15.97
2023-02-19T07:31:35.443Z,13.20
2023-02-19T07:34:03.509Z,15.27
2023-02-19T07:36:31.858Z,10.80
2023-02-19T07:39:02.026Z,14.63
2023-02-19T07:41:30.149Z,13.80
2023-02-19T07:43:58.416Z,16.40
2023-02-19T07:46:26.758Z,14.80
2023-02-19T07:48:56.112Z,11.37
2023-02-19T07:51:24.235Z,6.60
2023-02-19T07:53:52.476Z,16.37
2023-02-19T07:56:21.146Z,13.70
2023-02-19T07:58:49.222Z,12.80
2023-02-19T08:01:19.180Z,14.20
2023-02-19T08:03:50.522Z,13.40
2023-02-19T08:06:19.966Z,12.90
2023-02-19T08:08:47.950Z,9.90
2023-02-19T08:11:33.539Z,17.33
2023-02-19T08:14:02.112Z,16.07
2023-02-19T08:16:42.475Z,16.23
2023-02-19T08:19:10.846Z,11.60
2023-02-19T08:21:40.269Z,14.40
2023-02-19T08:24:08.347Z,16.07
2023-02-19T08:26:36.686Z,14.60
2023-02-19T08:29:05.179Z,15.13
2023-02-19T08:31:33.731Z,18.47
2023-02-19T08:34:01.804Z,13.60
2023-02-19T08:36:29.788Z,15.50
2023-02-19T08:38:59.095Z,16.90
2023-02-19T08:41:27.065Z,18.57
2023-02-19T08:43:55.150Z,11.17
2023-02-19T08:46:23.398Z,15.70
2023-02-19T08:48:52.094Z,22.60
2023-02-19T08:51:20.023Z,16.17
2023-02-19T08:53:48.026Z,14.07
2023-02-19T08:56:18.795Z,14.97
2023-02-19T08:58:47.052Z,17.63
2023-02-19T09:01:18.282Z,17.10
2023-02-19T09:03:46.680Z,16.63
2023-02-19T09:06:17.530Z,9.90
2023-02-19T09:08:45.892Z,16.90
2023-02-19T09:11:14.308Z,13.67
2023-02-19T09:13:44.280Z,14.13
2023-02-19T09:16:12.963Z,18.13
2023-02-19T09:18:41.193Z,18.10
2023-02-19T09:21:09.433Z,16.30
2023-02-19T09:23:38.297Z,20.17
2023-02-19T09:26:09.983Z,14.43
2023-02-19T09:28:41.656Z,11.17
2023-02-19T09:31:13.393Z,14.10
2023-02-19T09:33:44.334Z,14.70
2023-02-19T09:36:13.430Z,10.47
2023-02-19T09:38:41.541Z,8.87
2023-02-19T09:41:15.733Z,9.93
2023-02-19T09:43:45.200Z,9.70
2023-02-19T09:46:29.634Z,6.40
2023-02-19T09:49:04.224Z,6.93
2023-02-19T09:51:33.919Z,8.33
2023-02-19T09:54:03.882Z,3.30
2023-02-19T09:56:33.240Z,4.40
2023-02-19T09:59:01.986Z,4.30
2023-02-19T10:01:36.155Z,4.77
2023-02-19T10:04:05.433Z,6.60
2023-02-19T10:06:36.190Z,11.73
2023-02-19T10:09:18.351Z,8.07
2023-02-19T10:11:47.063Z,9.37
2023-02-19T10:14:18.771Z,7.20
2023-02-19T10:16:51.211Z,5.23
2023-02-19T10:19:19.423Z,9.00
2023-02-19T10:21:47.794Z,7.10
2023-02-19T10:24:21.733Z,3.40
2023-02-19T10:26:51.766Z,7.80
2023-02-19T10:29:21.639Z,10.37
2023-02-19T10:31:52.192Z,7.30
2023-02-19T10:34:23.146Z,10.47
2023-02-19T10:36:53.173Z,11.83
2023-02-19T10:39:42.167Z,9.90
2023-02-19T10:42:17.730Z,8.00
2023-02-19T10:44:48.391Z,6.93
2023-02-19T10:47:24.475Z,4.43
2023-02-19T10:49:54.845Z,5.27
2023-02-19T10:52:27.122Z,6.43
2023-02-19T10:54:57.754Z,7.93
2023-02-19T10:57:33.184Z,9.30
2023-02-19T11:00:04.091Z,8.63
2023-02-19T11:02:33.566Z,13.33
2023-02-19T11:05:18.084Z,10.87
2023-02-19T11:07:48.579Z,8.97
2023-02-19T11:10:39.625Z,13.97
2023-02-19T11:13:15.147Z,9.07
2023-02-19T11:15:44.812Z,6.00
2023-02-19T11:18:23.495Z,5.47
2023-02-19T11:20:54.747Z,7.27
2023-02-19T11:23:28.210Z,6.47
2023-02-19T11:25:58.445Z,6.07
2023-02-19T11:28:34.523Z,6.20
2023-02-19T11:31:22.719Z,4.67
2023-02-19T11:33:56.746Z,6.47
2023-02-19T11:36:32.861Z,8.70
2023-02-19T11:39:11.846Z,3.47
2023-02-19T11:42:06.327Z,8.03
2023-02-19T11:44:46.605Z,6.60
2023-02-19T11:47:40.632Z,5.67
2023-02-19T11:50:22.862Z,7.13
2023-02-19T11:53:02.738Z,5.33
2023-02-19T11:55:43.312Z,6.00
2023-02-19T11:58:30.114Z,9.10
2023-02-19T12:01:07.307Z,6.07
2023-02-19T12:04:02.951Z,5.00
2023-02-19T12:06:40.234Z,3.80
2023-02-19T12:09:30.209Z,2.30
2023-02-19T12:12:16.617Z,2.97
2023-02-19T12:15:23.881Z,5.13
2023-02-19T12:18:19.890Z,4.83
2023-02-19T12:20:56.267Z,2.20
2023-02-19T12:23:51.482Z,2.57
2023-02-19T12:26:26.327Z,1.20
2023-02-19T12:29:17.763Z,2.17
2023-02-19T12:32:09.886Z,1.10
2023-02-19T12:35:06.950Z,1.00
2023-02-19T12:37:45.462Z,2.40
2023-02-19T12:40:34.038Z,4.83
2023-02-19T12:43:11.928Z,2.10
2023-02-19T12:45:45.244Z,1.57
2023-02-19T12:48:20.564Z,1.30
2023-02-19T12:50:54.517Z,2.87
2023-02-19T12:53:34.119Z,1.57
2023-02-19T12:56:09.718Z,2.10
2023-02-19T12:58:42.593Z,2.47
2023-02-19T13:01:16.405Z,3.67
2023-02-19T13:04:16.269Z,2.70
2023-02-19T13:06:48.107Z,1.63
2023-02-19T13:09:22.500Z,4.60
2023-02-19T13:11:57.603Z,1.63
2023-02-19T13:14:32.008Z,3.53
2023-02-19T13:17:05.455Z,2.70
2023-02-19T13:19:34.498Z,2.67
2023-02-19T13:22:30.141Z,1.50
2023-02-19T13:24:58.853Z,1.97
2023-02-19T13:27:59.663Z,3.30
2023-02-19T13:30:44.582Z,2.47
2023-02-19T13:33:44.916Z,0.50
2023-02-19T13:36:16.400Z,2.33
2023-02-19T13:38:48.132Z,0.90
2023-02-19T13:41:22.427Z,1.00
2023-02-19T13:43:59.473Z,1.07
2023-02-19T13:46:36.278Z,2.80
2023-02-19T13:49:41.051Z,2.27
2023-02-19T13:52:40.482Z,4.90
2023-02-19T13:55:46.734Z,1.20
2023-02-19T13:58:53.856Z,0.50
2023-02-19T14:01:58.063Z,0.87
2023-02-19T14:04:41.318Z,1.03
2023-02-19T14:07:46.058Z,0.43
2023-02-19T14:11:02.220Z,3.13
2023-02-19T14:13:59.487Z,3.93
2023-02-19T14:16:34.937Z,3.60
2023-02-19T14:19:03.242Z,0.87
2023-02-19T14:21:37.981Z,2.90
2023-02-19T14:24:11.516Z,0.60
2023-02-19T14:26:41.016Z,0.40
2023-02-19T14:29:10.564Z,0.97
2023-02-19T14:31:41.135Z,1.13
2023-02-19T14:34:22.562Z,2.17
2023-02-19T14:36:52.961Z,0.70
2023-02-19T14:39:35.034Z,1.30
2023-02-19T14:42:08.022Z,0.90
2023-02-19T14:44:46.489Z,0.30
2023-02-19T14:47:19.607Z,0.60
2023-02-19T14:50:05.581Z,0.97
2023-02-19T14:52:40.245Z,2.07
2023-02-19T14:55:11.217Z,0.50
2023-02-19T14:57:41.792Z,0.63
2023-02-19T15:00:24.541Z,0.77
2023-02-19T15:02:57.560Z,0.40
2023-02-19T15:05:27.799Z,1.73
2023-02-19T15:07:57.800Z,1.93
2023-02-19T15:10:28.367Z,1.23
2023-02-19T15:12:58.844Z,0.50
2023-02-19T15:15:30.864Z,4.80
2023-02-19T15:18:02.134Z,0.70
2023-02-19T15:20:32.742Z,0.40
2023-02-19T15:23:10.432Z,1.37
2023-02-19T15:25:39.982Z,1.33
2023-02-19T15:28:21.585Z,0.13
2023-02-19T15:30:50.245Z,2.63
2023-02-19T15:33:22.100Z,0.30
2023-02-19T15:35:51.257Z,0.40
2023-02-19T15:38:20.087Z,1.40
2023-02-19T15:40:49.821Z,0.20
2023-02-19T15:43:28.734Z,0.37
2023-02-19T15:46:00.635Z,1.33
2023-02-19T15:48:37.950Z,1.13
2023-02-19T15:51:10.411Z,2.97
2023-02-19T15:53:44.068Z,0.40
2023-02-19T15:56:17.237Z,0.70
2023-02-19T15:58:49.742Z,0.40
2023-02-19T16:01:22.067Z,0.60
2023-02-19T16:03:52.023Z,1.03
2023-02-19T16:06:20.642Z,1.00
2023-02-19T16:09:02.009Z,0.30
2023-02-19T16:11:35.528Z,0.27
2023-02-19T16:14:29.546Z,2.33
2023-02-19T16:17:01.583Z,1.17
2023-02-19T16:19:35.343Z,1.73
2023-02-19T16:22:03.397Z,3.30
2023-02-19T16:24:34.780Z,1.10
2023-02-19T16:27:03.458Z,3.63
2023-02-19T16:29:33.833Z,3.13
2023-02-19T16:32:04.325Z,0.93
2023-02-19T16:34:40.319Z,2.90
2023-02-19T16:37:37.189Z,1.43
2023-02-19T16:40:58.552Z,0.53
2023-02-19T16:44:19.044Z,0.80
2023-02-19T16:46:47.133Z,0.53
2023-02-19T16:49:15.430Z,0.30
2023-02-19T16:51:46.039Z,5.60
2023-02-19T16:54:14.566Z,3.73
2023-02-19T16:56:42.780Z,2.30
2023-02-19T16:59:10.855Z,1.63
2023-02-19T17:01:39.327Z,2.67
2023-02-19T17:04:10.292Z,1.17
2023-02-19T17:06:39.485Z,1.90
2023-02-19T17:09:09.918Z,3.47
2023-02-19T17:11:37.949Z,2.43
2023-02-19T17:14:05.921Z,2.10
2023-02-19T17:16:40.111Z,3.27
2023-02-19T17:19:13.179Z,1.83
2023-02-19T17:21:41.568Z,2.53
2023-02-19T17:24:10.965Z,2.93
2023-02-19T17:26:38.954Z,1.97
2023-02-19T17:29:11.205Z,2.07
2023-02-19T17:31:39.305Z,2.00
2023-02-19T17:34:07.518Z,2.23
2023-02-19T17:36:35.642Z,3.67
2023-02-19T17:39:06.957Z,1.53
2023-02-19T17:41:36.420Z,3.83
2023-02-19T17:44:04.675Z,2.97
2023-02-19T17:46:34.664Z,2.07
2023-02-19T17:49:02.653Z,2.93
2023-02-19T17:51:30.689Z,2.33
2023-02-19T17:54:01.111Z,2.40
2023-02-19T17:56:29.933Z,5.30
2023-02-19T17:59:01.061Z,4.33
2023-02-19T18:01:29.067Z,3.17
2023-02-19T18:03:57.688Z,7.37
2023-02-19T18:06:25.881Z,2.67
2023-02-19T18:08:54.704Z,2.87
2023-02-19T18:11:23.659Z,2.80
2023-02-19T18:13:52.572Z,4.23
2023-02-19T18:16:22.634Z,2.97
2023-02-19T18:18:50.686Z,2.43
2023-02-19T18:21:18.722Z,4.50
2023-02-19T18:23:48.158Z,3.20
2023-02-19T18:26:20.847Z,5.03
2023-02-19T18:28:48.949Z,3.13
2023-02-19T18:31:17.111Z,1.67
2023-02-19T18:33:46.561Z,5.20
2023-02-19T18:36:14.715Z,5.03
2023-02-19T18:38:43.149Z,1.80
2023-02-19T18:41:13.624Z,3.93
2023-02-19T18:43:42.244Z,5.37
2023-02-19T18:46:11.185Z,5.50
2023-02-19T18:48:39.734Z,3.47
2023-02-19T18:51:12.943Z,4.60
2023-02-19T18:53:47.030Z,3.13
2023-02-19T18:56:23.612Z,3.07
2023-02-19T18:58:52.050Z,3.10
2023-02-19T19:01:22.723Z,2.43
2023-02-19T19:03:53.756Z,2.67
2023-02-19T19:06:48.314Z,4.97
2023-02-19T19:09:20.002Z,3.30
2023-02-19T19:11:51.191Z,4.53
2023-02-19T19:14:20.582Z,4.70
2023-02-19T19:16:51.916Z,5.70
2023-02-19T19:19:24.418Z,3.57
2023-02-19T19:22:38.887Z,4.10
2023-02-19T19:25:08.993Z,6.87
2023-02-19T19:27:57.611Z,2.40
2023-02-19T19:30:28.709Z,5.07
2023-02-19T19:33:01.580Z,2.87
2023-02-19T19:35:35.573Z,4.70
2023-02-19T19:38:07.548Z,8.43
2023-02-19T19:40:38.310Z,4.23
2023-02-19T19:43:07.016Z,8.33
2023-02-19T19:45:42.457Z,5.03
2023-02-19T19:48:10.984Z,4.23
2023-02-19T19:50:59.515Z,4.00
2023-02-19T19:53:31.190Z,7.63
2023-02-19T19:55:59.880Z,5.90
2023-02-19T19:58:49.287Z,8.07
2023-02-19T20:04:04.301Z,5.00
2023-02-19T20:06:53.229Z,5.40
2023-02-19T20:09:30.415Z,5.27
2023-02-19T20:12:02.004Z,7.37
2023-02-19T20:14:35.361Z,7.17
2023-02-19T20:17:03.797Z,9.03
2023-02-19T20:19:32.317Z,9.10
2023-02-19T20:22:20.720Z,7.47
2023-02-19T20:24:55.866Z,8.67
2023-02-19T20:27:27.427Z,7.60
2023-02-19T20:29:56.464Z,6.53
2023-02-19T20:32:27.051Z,8.50
2023-02-19T20:34:55.628Z,7.73
2023-02-19T20:37:45.108Z,5.70
2023-02-19T20:40:21.473Z,9.00
2023-02-19T20:42:51.164Z,8.00
2023-02-19T20:45:20.432Z,6.13
2023-02-19T20:47:49.087Z,6.37
2023-02-19T20:50:37.172Z,8.17
2023-02-19T20:53:06.878Z,8.87
2023-02-19T20:55:36.844Z,7.60
2023-02-19T20:58:05.051Z,7.60
2023-02-19T21:00:33.212Z,7.60
2023-02-19T21:03:03.317Z,7.17
2023-02-19T21:05:31.623Z,6.00
2023-02-19T21:08:00.740Z,5.23
2023-02-19T21:10:31.062Z,7.00
2023-02-19T21:13:03.252Z,7.70
2023-02-19T21:15:39.677Z,11.40
2023-02-19T21:18:13.501Z,7.83
2023-02-19T21:20:43.822Z,7.17
2023-02-19T21:23:14.513Z,7.50
2023-02-19T21:25:43.976Z,9.00
2023-02-19T21:28:17.060Z,8.70
2023-02-19T21:30:46.823Z,7.57
2023-02-19T21:33:20.586Z,12.33
2023-02-19T21:35:50.741Z,8.37
2023-02-19T21:38:19.206Z,7.90
2023-02-19T21:41:07.739Z,8.33
2023-02-19T21:43:57.372Z,9.23
2023-02-19T21:46:29.457Z,11.07
2023-02-19T21:49:00.106Z,9.33
2023-02-19T21:51:31.110Z,10.87
2023-02-19T21:54:01.031Z,9.90
2023-02-19T21:56:31.379Z,9.67
2023-02-19T21:59:01.524Z,7.30
2023-02-19T22:01:32.136Z,10.33
2023-02-19T22:04:03.079Z,7.73
2023-02-19T22:06:32.641Z,10.10
2023-02-19T22:09:01.435Z,11.23
2023-02-19T22:11:29.589Z,9.40
2023-02-19T22:13:57.683Z,10.67
2023-02-19T22:16:31.070Z,9.73
2023-02-19T22:19:04.777Z,13.67
2023-02-19T22:21:34.939Z,14.03
2023-02-19T22:24:06.708Z,13.57
2023-02-19T22:26:36.893Z,12.90
2023-02-19T22:29:27.524Z,11.97
2023-02-19T22:31:57.346Z,13.53
2023-02-19T22:34:27.785Z,14.93
2023-02-19T22:36:57.122Z,13.87
2023-02-19T22:39:27.307Z,10.10
2023-02-19T22:41:57.395Z,7.83
2023-02-19T22:44:46.949Z,13.43
2023-02-19T22:47:18.971Z,13.80
2023-02-19T22:49:47.084Z,15.70
2023-02-19T22:52:16.256Z,12.37
2023-02-19T22:55:04.841Z,12.53
2023-02-19T22:57:36.588Z,13.07
2023-02-19T23:00:07.461Z,10.43
2023-02-19T23:02:38.372Z,11.57
2023-02-19T23:05:11.683Z,13.40
2023-02-19T23:07:42.890Z,12.33
2023-02-19T23:10:12.034Z,15.17
2023-02-19T23:13:01.588Z,13.80
2023-02-19T23:15:30.052Z,12.53
2023-02-19T23:18:03.213Z,15.37
2023-02-19T23:20:33.935Z,16.77
2023-02-19T23:23:02.456Z,14.50
2023-02-19T23:25:50.946Z,17.37
2023-02-19T23:28:20.194Z,14.37
2023-02-19T23:31:09.263Z,21.57
2023-02-19T23:33:40.391Z,14.43
2023-02-19T23:36:11.780Z,15.33
2023-02-19T23:38:40.897Z,14.50
2023-02-19T23:41:14.030Z,13.93
2023-02-19T23:43:42.397Z,14.17
2023-02-19T23:46:20.561Z,14.97
2023-02-19T23:48:50.302Z,16.03
2023-02-19T23:51:21.305Z,17.90
2023-02-19T23:53:49.540Z,14.60
2023-02-19T23:56:24.897Z,10.70
2023-02-19T23:58:53.856Z,25.60
